Mackenzie Hope — WDJ2187 — position and weather

sailwx.info

Track history (hours):
 
Tides and Currents Weather Stations Pressure Air Temp Water Temp Dewpoint Dewpoint Depression Visibility Wind Speed Wind Dir Waves Ship Positions

Mackenzie Hope

Owner: Genesis Marine, LLC, Houston, TX. More information available from US FCC via Universal Licensing System and Coast Guard Vessel Documentation Center.

Last reported at 2018-Feb-02 12:27 UTC. Time now 2018-Feb-21 17:29 UTC.
Position N 29°33' W 090°26'.
Warning: this ship's position is 19 days out of date.

Length 25 m; draft 3.3 m.

Type: Ship (hazmat cat B). MMSI: 367756040.

Date/timePositionNaut miles runAvg speedWind from/ knotsBaromVisibWave heightAir tempDewpointWater temp
2018-Feb-02 12:27N 29°33' W 090°26'2 5.0
2018-Feb-02 12:00N 29°34' W 090°29'3 5.3
2018-Feb-02 11:31N 29°34' W 090°32'3 5.2
2018-Feb-02 11:00N 29°34' W 090°35'2 4.9
2018-Feb-02 10:30N 29°35' W 090°37'3 5.3
2018-Feb-02 10:01N 29°36' W 090°40'2 4.3
2018-Feb-02 09:31N 29°37' W 090°42'2 4.5
2018-Feb-02 09:00N 29°34' W 090°43'2 4.6
2018-Feb-02 08:31N 29°33' W 090°45'1 1.3
2018-Feb-02 08:00N 29°33' W 090°46'0 0.0
2018-Feb-02 07:31N 29°33' W 090°46'1 1.6
2018-Feb-02 07:01N 29°32' W 090°46'3 5.5
2018-Feb-02 06:29N 29°32' W 090°50'3 6.0
2018-Feb-02 06:00N 29°32' W 090°53'5 6.0
2018-Feb-02 05:08N 29°35' W 090°58'55 4.1
2018-Feb-01 15:46N 29°50' W 091°59'2 5.8
2018-Feb-01 15:30N 29°50' W 092°01'3 5.3
2018-Feb-01 15:00N 29°49' W 092°04'7 5.0
2018-Feb-01 13:30N 29°47' W 092°12'2 4.2
2018-Feb-01 13:01N 29°48' W 092°14'1 1.8
2018-Feb-01 12:29N 29°48' W 092°15'1 1.4
2018-Feb-01 12:00N 29°48' W 092°16'38 4.6
2018-Feb-01 03:48N 29°56' W 092°59'4 4.5
2018-Feb-01 03:00N 29°56' W 093°03'2 4.3
2018-Feb-01 02:30N 29°56' W 093°05'2 4.3
2018-Feb-01 02:00N 29°56' W 093°08'2 4.1
2018-Feb-01 01:30N 29°57' W 093°10'2 3.4
2018-Feb-01 01:00N 29°58' W 093°11'2 4.3
2018-Feb-01 00:31N 29°60' W 093°13'2 3.9
2018-Feb-01 00:00N 30°01' W 093°14'4 4.2
2018-Jan-31 23:00N 30°05' W 093°17'2 3.3
2018-Jan-31 22:30N 30°06' W 093°18'0 0.1
2018-Jan-31 21:01N 30°06' W 093°18'2 3.9
2018-Jan-31 20:31N 30°05' W 093°20'2 4.0
2018-Jan-31 20:01N 30°04' W 093°22'2 3.1
2018-Jan-31 19:31N 30°04' W 093°24'3 5.1
2018-Jan-31 19:00N 30°04' W 093°27'3 5.1
2018-Jan-31 18:30N 30°04' W 093°30'3 5.1
2018-Jan-31 18:00N 30°04' W 093°33'2 5.0
2018-Jan-31 17:30N 30°04' W 093°35'2 5.0
2018-Jan-31 17:00N 30°04' W 093°38'3 5.0
2018-Jan-31 16:28N 30°04' W 093°41'2 4.9
2018-Jan-31 16:01N 30°03' W 093°44'2 4.8
2018-Jan-31 15:30N 30°01' W 093°45'3 5.0
2018-Jan-31 15:01N 29°59' W 093°48'3 5.9
2018-Jan-31 14:30N 29°58' W 093°51'8 5.4
2018-Jan-31 13:00N 29°52' W 093°56'3 5.4
2018-Jan-31 12:31N 29°49' W 093°58'3 5.4
2018-Jan-31 12:00N 29°48' W 094°01'3 5.6
2018-Jan-31 11:31N 29°46' W 094°03'3 5.4
2018-Jan-31 11:00N 29°44' W 094°05'3 5.3
2018-Jan-31 10:31N 29°43' W 094°08'3 5.1
2018-Jan-31 09:59N 29°41' W 094°10'3 5.1
2018-Jan-31 09:29N 29°40' W 094°13'3 5.2
2018-Jan-31 09:00N 29°39' W 094°16'3 5.2
2018-Jan-31 08:30N 29°38' W 094°18'3 5.2
2018-Jan-31 07:58N 29°37' W 094°21'2 4.8
2018-Jan-31 07:30N 29°36' W 094°24'2 3.7
2018-Jan-31 07:00N 29°34' W 094°25'2 4.5
2018-Jan-31 06:30N 29°34' W 094°27'2 4.0
2018-Jan-31 06:00N 29°32' W 094°29'4 5.2
2018-Jan-31 05:18N 29°30' W 094°33'4 5.3
2018-Jan-31 04:36N 29°29' W 094°36'0 5.4
2018-Jan-31 04:30N 29°29' W 094°37'8 3.7
2018-Jan-31 02:23N 29°24' W 094°44'0 0.0
2018-Jan-31 01:15N 29°24' W 094°44'0 0.0
2018-Jan-29 14:05N 29°24' W 094°44'0 0.0
2018-Jan-29 13:49N 29°24' W 094°44'0 0.0
2018-Jan-29 13:18N 29°24' W 094°44'0 0.0
2018-Jan-29 12:09N 29°24' W 094°44'0 0.0
2018-Jan-29 11:50N 29°24' W 094°44'0 0.0
2018-Jan-29 11:26N 29°24' W 094°44'  
2018-Jan-26 09:46N 28°17' W 096°43'2 4.9
2018-Jan-26 09:25N 28°16' W 096°45'2 4.9
2018-Jan-26 08:59N 28°15' W 096°46'2 4.5
2018-Jan-26 08:30N 28°13' W 096°48'2 4.1
2018-Jan-26 07:59N 28°12' W 096°50'2 3.9
2018-Jan-26 07:30N 28°11' W 096°52'2 4.2
2018-Jan-26 07:00N 28°09' W 096°54'2 4.1
2018-Jan-26 06:29N 28°08' W 096°55'2 4.5
2018-Jan-26 05:59N 28°06' W 096°57'2 5.0
2018-Jan-26 05:31N 28°04' W 096°58'2 4.9
2018-Jan-26 05:00N 28°02' W 097°00'3 5.2
2018-Jan-26 04:28N 27°60' W 097°02'2 4.7
2018-Jan-26 03:58N 27°58' W 097°03'3 5.4
2018-Jan-26 03:30N 27°55' W 097°03'3 6.3
2018-Jan-26 02:59N 27°52' W 097°03'3 5.4
2018-Jan-26 02:30N 27°50' W 097°05'3 6.4
2018-Jan-26 01:59N 27°50' W 097°09'15 1.4
2018-Jan-25 15:25N 27°49' W 097°26'0 0.5
2018-Jan-25 14:57N 27°49' W 097°26'0 0.0
2018-Jan-25 14:30N 27°49' W 097°26'0 0.0
2018-Jan-25 13:57N 27°49' W 097°26'0 1.0
2018-Jan-25 13:28N 27°49' W 097°26'0 0.0
2018-Jan-25 12:58N 27°49' W 097°26'1 0.1
2018-Jan-25 04:52N 27°49' W 097°25'2 6.1
2018-Jan-25 04:29N 27°49' W 097°22'4 7.7
2018-Jan-25 03:56N 27°49' W 097°17'3 7.2
2018-Jan-25 03:30N 27°49' W 097°14'4 7.7
2018-Jan-25 02:59N 27°50' W 097°09'4 8.0
2018-Jan-25 02:30N 27°50' W 097°05'3 5.4
2018-Jan-25 01:59N 27°52' W 097°03'2 4.9
2018-Jan-25 01:30N 27°55' W 097°03'3 5.1
2018-Jan-25 01:00N 27°57' W 097°03'3 5.5
2018-Jan-25 00:31N 27°60' W 097°02'3 5.7
2018-Jan-24 23:59N 28°02' W 097°00'3 5.8
2018-Jan-24 23:28N 28°04' W 096°58'3 5.9
2018-Jan-24 22:59N 28°07' W 096°56'3 6.5
2018-Jan-24 22:29N 28°09' W 096°54'3 6.8
2018-Jan-24 21:59N 28°11' W 096°51'3 5.6
2018-Jan-24 21:30N 28°13' W 096°48'3 5.6
2018-Jan-24 21:01N 28°15' W 096°46'3 5.7
2018-Jan-24 20:29N 28°17' W 096°43'3 5.2
2018-Jan-24 19:57N 28°18' W 096°41'3 5.8
2018-Jan-24 19:29N 28°20' W 096°38'3 5.6
2018-Jan-24 19:00N 28°21' W 096°36'1 1.4
2018-Jan-24 18:28N 28°22' W 096°35'0 0.0
2018-Jan-24 17:57N 28°22' W 096°35'0 0.0
2018-Jan-24 17:30N 28°22' W 096°35'0 0.0
2018-Jan-24 17:01N 28°22' W 096°35'0 0.1
2018-Jan-24 16:27N 28°22' W 096°35'2 4.3
2018-Jan-24 15:54N 28°23' W 096°33'2 4.0
2018-Jan-24 15:27N 28°24' W 096°31'2 4.5
2018-Jan-24 14:59N 28°25' W 096°29'1 2.7
2018-Jan-24 14:29N 28°25' W 096°27'0 0.8
2018-Jan-24 14:00N 28°26' W 096°27'2 4.5
2018-Jan-24 13:27N 28°26' W 096°24'2 4.5
2018-Jan-24 13:00N 28°28' W 096°23'2 4.4
2018-Jan-24 12:30N 28°29' W 096°21'2 4.4
2018-Jan-24 11:59N 28°30' W 096°18'  
Track history (hours):
 
Tides and Currents Weather Stations Pressure Air Temp Water Temp Dewpoint Dewpoint Depression Visibility Wind Speed Wind Dir Waves Ship Positions

Mackenzie Hope

Owner: Genesis Marine, LLC, Houston, TX. More information available from US FCC via Universal Licensing System and Coast Guard Vessel Documentation Center.

Last reported at 2018-Feb-02 12:27 UTC. Time now 2018-Feb-21 17:29 UTC.
Position N 29°33' W 090°26'.
Warning: this ship's position is 19 days out of date.

Length 25 m; draft 3.3 m.

Type: Ship (hazmat cat B). MMSI: 367756040.

Date/timePositionNaut miles runAvg speedWind from/ knotsBaromVisibWave heightAir tempDewpointWater temp
2018-Feb-02 12:27N 29°33' W 090°26'2 5.0
2018-Feb-02 12:00N 29°34' W 090°29'3 5.3
2018-Feb-02 11:31N 29°34' W 090°32'3 5.2
2018-Feb-02 11:00N 29°34' W 090°35'2 4.9
2018-Feb-02 10:30N 29°35' W 090°37'3 5.3
2018-Feb-02 10:01N 29°36' W 090°40'2 4.3
2018-Feb-02 09:31N 29°37' W 090°42'2 4.5
2018-Feb-02 09:00N 29°34' W 090°43'2 4.6
2018-Feb-02 08:31N 29°33' W 090°45'1 1.3
2018-Feb-02 08:00N 29°33' W 090°46'0 0.0
2018-Feb-02 07:31N 29°33' W 090°46'1 1.6
2018-Feb-02 07:01N 29°32' W 090°46'3 5.5
2018-Feb-02 06:29N 29°32' W 090°50'3 6.0
2018-Feb-02 06:00N 29°32' W 090°53'5 6.0
2018-Feb-02 05:08N 29°35' W 090°58'55 4.1
2018-Feb-01 15:46N 29°50' W 091°59'2 5.8
2018-Feb-01 15:30N 29°50' W 092°01'3 5.3
2018-Feb-01 15:00N 29°49' W 092°04'7 5.0
2018-Feb-01 13:30N 29°47' W 092°12'2 4.2
2018-Feb-01 13:01N 29°48' W 092°14'1 1.8
2018-Feb-01 12:29N 29°48' W 092°15'1 1.4
2018-Feb-01 12:00N 29°48' W 092°16'38 4.6
2018-Feb-01 03:48N 29°56' W 092°59'4 4.5
2018-Feb-01 03:00N 29°56' W 093°03'2 4.3
2018-Feb-01 02:30N 29°56' W 093°05'2 4.3
2018-Feb-01 02:00N 29°56' W 093°08'2 4.1
2018-Feb-01 01:30N 29°57' W 093°10'2 3.4
2018-Feb-01 01:00N 29°58' W 093°11'2 4.3
2018-Feb-01 00:31N 29°60' W 093°13'2 3.9
2018-Feb-01 00:00N 30°01' W 093°14'4 4.2
2018-Jan-31 23:00N 30°05' W 093°17'2 3.3
2018-Jan-31 22:30N 30°06' W 093°18'0 0.1
2018-Jan-31 21:01N 30°06' W 093°18'2 3.9
2018-Jan-31 20:31N 30°05' W 093°20'2 4.0
2018-Jan-31 20:01N 30°04' W 093°22'2 3.1
2018-Jan-31 19:31N 30°04' W 093°24'3 5.1
2018-Jan-31 19:00N 30°04' W 093°27'3 5.1
2018-Jan-31 18:30N 30°04' W 093°30'3 5.1
2018-Jan-31 18:00N 30°04' W 093°33'2 5.0
2018-Jan-31 17:30N 30°04' W 093°35'2 5.0
2018-Jan-31 17:00N 30°04' W 093°38'3 5.0
2018-Jan-31 16:28N 30°04' W 093°41'2 4.9
2018-Jan-31 16:01N 30°03' W 093°44'2 4.8
2018-Jan-31 15:30N 30°01' W 093°45'3 5.0
2018-Jan-31 15:01N 29°59' W 093°48'3 5.9
2018-Jan-31 14:30N 29°58' W 093°51'8 5.4
2018-Jan-31 13:00N 29°52' W 093°56'3 5.4
2018-Jan-31 12:31N 29°49' W 093°58'3 5.4
2018-Jan-31 12:00N 29°48' W 094°01'3 5.6
2018-Jan-31 11:31N 29°46' W 094°03'3 5.4
2018-Jan-31 11:00N 29°44' W 094°05'3 5.3
2018-Jan-31 10:31N 29°43' W 094°08'3 5.1
2018-Jan-31 09:59N 29°41' W 094°10'3 5.1
2018-Jan-31 09:29N 29°40' W 094°13'3 5.2
2018-Jan-31 09:00N 29°39' W 094°16'3 5.2
2018-Jan-31 08:30N 29°38' W 094°18'3 5.2
2018-Jan-31 07:58N 29°37' W 094°21'2 4.8
2018-Jan-31 07:30N 29°36' W 094°24'2 3.7
2018-Jan-31 07:00N 29°34' W 094°25'2 4.5
2018-Jan-31 06:30N 29°34' W 094°27'2 4.0
2018-Jan-31 06:00N 29°32' W 094°29'4 5.2
2018-Jan-31 05:18N 29°30' W 094°33'4 5.3
2018-Jan-31 04:36N 29°29' W 094°36'0 5.4
2018-Jan-31 04:30N 29°29' W 094°37'8 3.7
2018-Jan-31 02:23N 29°24' W 094°44'0 0.0
2018-Jan-31 01:15N 29°24' W 094°44'0 0.0
2018-Jan-29 14:05N 29°24' W 094°44'0 0.0
2018-Jan-29 13:49N 29°24' W 094°44'0 0.0
2018-Jan-29 13:18N 29°24' W 094°44'0 0.0
2018-Jan-29 12:09N 29°24' W 094°44'0 0.0
2018-Jan-29 11:50N 29°24' W 094°44'0 0.0
2018-Jan-29 11:26N 29°24' W 094°44'  
2018-Jan-26 09:46N 28°17' W 096°43'2 4.9
2018-Jan-26 09:25N 28°16' W 096°45'2 4.9
2018-Jan-26 08:59N 28°15' W 096°46'2 4.5
2018-Jan-26 08:30N 28°13' W 096°48'2 4.1
2018-Jan-26 07:59N 28°12' W 096°50'2 3.9
2018-Jan-26 07:30N 28°11' W 096°52'2 4.2
2018-Jan-26 07:00N 28°09' W 096°54'2 4.1
2018-Jan-26 06:29N 28°08' W 096°55'2 4.5
2018-Jan-26 05:59N 28°06' W 096°57'2 5.0
2018-Jan-26 05:31N 28°04' W 096°58'2 4.9
2018-Jan-26 05:00N 28°02' W 097°00'3 5.2
2018-Jan-26 04:28N 27°60' W 097°02'2 4.7
2018-Jan-26 03:58N 27°58' W 097°03'3 5.4
2018-Jan-26 03:30N 27°55' W 097°03'3 6.3
2018-Jan-26 02:59N 27°52' W 097°03'3 5.4
2018-Jan-26 02:30N 27°50' W 097°05'3 6.4
2018-Jan-26 01:59N 27°50' W 097°09'15 1.4
2018-Jan-25 15:25N 27°49' W 097°26'0 0.5
2018-Jan-25 14:57N 27°49' W 097°26'0 0.0
2018-Jan-25 14:30N 27°49' W 097°26'0 0.0
2018-Jan-25 13:57N 27°49' W 097°26'0 1.0
2018-Jan-25 13:28N 27°49' W 097°26'0 0.0
2018-Jan-25 12:58N 27°49' W 097°26'1 0.1
2018-Jan-25 04:52N 27°49' W 097°25'2 6.1
2018-Jan-25 04:29N 27°49' W 097°22'4 7.7
2018-Jan-25 03:56N 27°49' W 097°17'3 7.2
2018-Jan-25 03:30N 27°49' W 097°14'4 7.7
2018-Jan-25 02:59N 27°50' W 097°09'4 8.0
2018-Jan-25 02:30N 27°50' W 097°05'3 5.4
2018-Jan-25 01:59N 27°52' W 097°03'2 4.9
2018-Jan-25 01:30N 27°55' W 097°03'3 5.1
2018-Jan-25 01:00N 27°57' W 097°03'3 5.5
2018-Jan-25 00:31N 27°60' W 097°02'3 5.7
2018-Jan-24 23:59N 28°02' W 097°00'3 5.8
2018-Jan-24 23:28N 28°04' W 096°58'3 5.9
2018-Jan-24 22:59N 28°07' W 096°56'3 6.5
2018-Jan-24 22:29N 28°09' W 096°54'3 6.8
2018-Jan-24 21:59N 28°11' W 096°51'3 5.6
2018-Jan-24 21:30N 28°13' W 096°48'3 5.6
2018-Jan-24 21:01N 28°15' W 096°46'3 5.7
2018-Jan-24 20:29N 28°17' W 096°43'3 5.2
2018-Jan-24 19:57N 28°18' W 096°41'3 5.8
2018-Jan-24 19:29N 28°20' W 096°38'3 5.6
2018-Jan-24 19:00N 28°21' W 096°36'1 1.4
2018-Jan-24 18:28N 28°22' W 096°35'0 0.0
2018-Jan-24 17:57N 28°22' W 096°35'0 0.0
2018-Jan-24 17:30N 28°22' W 096°35'0 0.0
2018-Jan-24 17:01N 28°22' W 096°35'0 0.1
2018-Jan-24 16:27N 28°22' W 096°35'2 4.3
2018-Jan-24 15:54N 28°23' W 096°33'2 4.0
2018-Jan-24 15:27N 28°24' W 096°31'2 4.5
2018-Jan-24 14:59N 28°25' W 096°29'1 2.7
2018-Jan-24 14:29N 28°25' W 096°27'0 0.8
2018-Jan-24 14:00N 28°26' W 096°27'2 4.5
2018-Jan-24 13:27N 28°26' W 096°24'2 4.5
2018-Jan-24 13:00N 28°28' W 096°23'2 4.4
2018-Jan-24 12:30N 28°29' W 096°21'2 4.4
2018-Jan-24 11:59N 28°30' W 096°18'  

Dump ship's entire track history